Time;durP1;ratioP1;P1;durP2;ratioP2;P2;SDS_P1;SDS_P2;PMS_P1;PMS_P2;Temp;Humidity;BMP_temperature;BMP_pressure;BME280_temperature;BME280_humidity;BME280_pressure;Samples;Min_cycle;Max_cycle;Signal;HPM_P1;HPM_P2
2023/09/18 00:01:08;;;;;;;33.40;24.13;;;17.70;99.90;;;;;;5014439;28;20049;-51
2023/09/18 00:03:33;;;;;;;40.10;24.30;;;17.70;99.90;;;;;;5013211;28;20045;-52
2023/09/18 00:05:59;;;;;;;31.77;22.67;;;17.70;99.90;;;;;;5014207;28;20061;-54
2023/09/18 00:08:25;;;;;;;32.28;22.10;;;17.70;99.90;;;;;;5015177;28;20030;-52
2023/09/18 00:10:53;;;;;;;33.85;21.77;;;17.70;99.90;;;;;;5013869;28;20098;-54
2023/09/18 00:13:19;;;;;;;29.05;22.00;;;17.70;99.90;;;;;;5010746;28;20675;-54
2023/09/18 00:15:46;;;;;;;29.38;22.77;;;17.70;99.90;;;;;;5012997;28;20152;-54
2023/09/18 00:18:14;;;;;;;30.08;22.45;;;17.70;99.90;;;;;;5009741;28;20041;-54
2023/09/18 00:20:41;;;;;;;29.45;22.40;;;17.70;99.90;;;;;;5013908;28;20589;-53
2023/09/18 00:23:07;;;;;;;31.65;23.20;;;17.80;99.90;;;;;;5003330;28;20548;-53
2023/09/18 00:25:33;;;;;;;29.85;22.48;;;17.80;99.90;;;;;;5013376;28;20096;-51
2023/09/18 00:27:59;;;;;;;31.02;23.23;;;17.80;99.90;;;;;;5011201;28;20156;-53
2023/09/18 00:30:25;;;;;;;31.73;21.83;;;17.90;99.90;;;;;;5013425;28;20034;-50
2023/09/18 00:32:51;;;;;;;29.88;22.35;;;17.90;99.90;;;;;;5010566;28;20049;-54
2023/09/18 00:35:17;;;;;;;27.55;22.60;;;17.90;99.90;;;;;;5011997;28;20493;-53
2023/09/18 00:37:43;;;;;;;30.67;23.08;;;17.90;99.90;;;;;;5011993;28;20040;-51
2023/09/18 00:40:09;;;;;;;30.45;23.27;;;17.90;99.90;;;;;;5010715;28;20034;-57
2023/09/18 00:42:36;;;;;;;28.05;22.05;;;17.90;99.90;;;;;;5007520;28;20041;-56
2023/09/18 00:45:02;;;;;;;32.83;23.80;;;17.90;99.90;;;;;;5007385;28;20614;-55
2023/09/18 00:47:28;;;;;;;28.60;20.88;;;17.90;99.90;;;;;;5012261;28;20045;-56
2023/09/18 00:49:55;;;;;;;30.55;24.30;;;17.80;99.90;;;;;;5011350;28;20171;-55
2023/09/18 00:52:22;;;;;;;35.25;24.98;;;17.80;99.90;;;;;;5011003;28;20045;-52
2023/09/18 00:54:49;;;;;;;36.95;27.73;;;17.80;99.90;;;;;;5013965;28;20079;-55
2023/09/18 00:57:15;;;;;;;37.88;29.35;;;17.80;99.90;;;;;;5012590;28;20514;-53
2023/09/18 00:59:41;;;;;;;39.38;29.10;;;17.80;99.90;;;;;;5011218;28;20037;-54
2023/09/18 01:02:07;;;;;;;40.10;29.60;;;17.80;99.90;;;;;;5011587;28;20056;-53
2023/09/18 01:04:33;;;;;;;41.30;29.35;;;17.80;99.90;;;;;;5011813;28;20045;-54
2023/09/18 01:07:05;;;;;;;43.17;30.70;;;17.80;99.90;;;;;;5004683;28;20370;-57
2023/09/18 01:09:32;;;;;;;44.05;31.17;;;17.80;99.90;;;;;;5005252;28;20549;-54
2023/09/18 01:12:07;;;;;;;41.72;29.45;;;17.80;99.90;;;;;;5007628;28;20053;-51
2023/09/18 01:15:12;;;;;;;40.15;29.42;;;17.80;99.90;;;;;;5009436;28;20473;-53
2023/09/18 01:17:38;;;;;;;40.90;29.67;;;17.70;99.90;;;;;;5009704;28;20034;-55
2023/09/18 01:20:05;;;;;;;41.90;30.27;;;17.80;99.90;;;;;;5011258;28;20500;-50
2023/09/18 01:22:32;;;;;;;38.33;28.55;;;17.70;99.90;;;;;;5028029;28;20056;-55
2023/09/18 01:24:58;;;;;;;39.33;30.30;;;17.70;99.90;;;;;;5010792;28;20054;-54
2023/09/18 01:27:24;;;;;;;39.83;29.75;;;17.70;99.90;;;;;;4995721;28;20049;-55
2023/09/18 01:29:50;;;;;;;38.50;29.48;;;17.70;99.90;;;;;;5013031;28;20025;-54
2023/09/18 01:32:16;;;;;;;38.70;28.35;;;17.70;99.90;;;;;;5013925;28;20482;-54
2023/09/18 01:34:50;;;;;;;35.47;28.60;;;17.70;99.90;;;;;;5012102;28;20124;-53
2023/09/18 01:37:22;;;;;;;36.92;28.65;;;17.70;99.90;;;;;;5010809;28;20498;-55
2023/09/18 01:39:50;;;;;;;38.58;29.13;;;17.70;99.90;;;;;;5010937;28;20048;-55
2023/09/18 01:42:16;;;;;;;40.78;30.20;;;17.60;99.90;;;;;;5009076;28;20456;-55
2023/09/18 01:44:43;;;;;;;38.67;29.55;;;17.60;99.90;;;;;;5009891;28;20041;-53
2023/09/18 01:47:12;;;;;;;40.60;29.08;;;17.60;99.90;;;;;;4990802;28;20504;-53
2023/09/18 01:49:39;;;;;;;37.53;28.33;;;17.60;99.90;;;;;;5008259;28;20099;-52
2023/09/18 01:52:06;;;;;;;39.90;29.88;;;17.60;99.90;;;;;;5008913;28;20048;-56
2023/09/18 01:54:33;;;;;;;36.10;27.25;;;17.60;99.90;;;;;;5011001;28;20038;-56
2023/09/18 01:56:59;;;;;;;39.33;28.58;;;17.60;99.90;;;;;;5012999;28;20099;-57
2023/09/18 01:59:26;;;;;;;37.53;28.65;;;17.60;99.90;;;;;;4993683;28;20489;-53
2023/09/18 02:01:56;;;;;;;37.90;27.50;;;17.60;99.90;;;;;;5010351;28;20042;-53
2023/09/18 02:04:22;;;;;;;44.65;28.73;;;17.70;99.90;;;;;;5008268;28;20112;-54
2023/09/18 02:06:51;;;;;;;37.97;27.50;;;17.60;99.90;;;;;;5010544;28;20037;-54
2023/09/18 02:09:18;;;;;;;39.30;28.27;;;17.70;99.90;;;;;;5004504;28;20502;-55
2023/09/18 02:11:46;;;;;;;36.85;28.00;;;17.70;99.90;;;;;;5012231;28;20034;-52
2023/09/18 02:14:11;;;;;;;32.40;25.92;;;17.70;99.90;;;;;;5008166;28;20038;-54
2023/09/18 02:16:40;;;;;;;35.00;27.08;;;17.70;99.90;;;;;;5011485;28;20073;-52
2023/09/18 02:19:08;;;;;;;32.03;25.48;;;17.70;99.90;;;;;;5009479;28;20033;-52
2023/09/18 02:21:34;;;;;;;33.60;25.17;;;17.70;99.90;;;;;;5010115;28;20037;-55
2023/09/18 02:24:01;;;;;;;35.92;26.48;;;17.80;99.90;;;;;;5013025;28;20422;-54
2023/09/18 02:26:27;;;;;;;32.08;25.55;;;17.80;99.90;;;;;;4995648;28;20537;-55
2023/09/18 02:28:54;;;;;;;32.85;24.98;;;17.80;99.90;;;;;;4989975;28;20049;-54
2023/09/18 02:31:20;;;;;;;32.05;25.38;;;17.80;99.90;;;;;;4993813;28;20046;-55
2023/09/18 02:33:47;;;;;;;30.77;23.80;;;17.80;99.90;;;;;;4989747;28;20176;-54
2023/09/18 02:36:13;;;;;;;32.58;24.88;;;17.80;99.90;;;;;;4990870;28;20046;-54
2023/09/18 02:38:39;;;;;;;31.75;24.60;;;17.80;99.90;;;;;;4996388;28;20417;-53
2023/09/18 02:41:04;;;;;;;29.38;24.85;;;17.80;99.90;;;;;;4993866;28;20536;-57
2023/09/18 02:43:30;;;;;;;27.80;22.70;;;17.80;99.90;;;;;;4993806;28;20046;-55
2023/09/18 02:45:56;;;;;;;30.95;24.13;;;17.90;99.90;;;;;;4995720;28;20045;-55
2023/09/18 02:48:22;;;;;;;27.95;24.05;;;17.80;99.90;;;;;;4995028;28;20045;-54
2023/09/18 02:50:47;;;;;;;29.48;24.60;;;17.80;99.90;;;;;;4988459;28;20968;-54
2023/09/18 02:53:21;;;;;;;28.30;23.02;;;17.90;99.90;;;;;;4996551;28;20386;-53
2023/09/18 02:55:52;;;;;;;30.35;24.23;;;17.90;99.90;;;;;;4996429;28;20049;-57
2023/09/18 02:58:19;;;;;;;30.67;23.85;;;17.90;99.90;;;;;;4995189;28;20054;-55
2023/09/18 03:00:47;;;;;;;32.60;24.48;;;17.90;99.90;;;;;;4989422;28;20054;-56
2023/09/18 03:03:13;;;;;;;32.10;23.95;;;17.90;99.90;;;;;;4992612;28;20038;-55
2023/09/18 03:05:40;;;;;;;31.85;23.55;;;17.90;99.90;;;;;;4979843;28;20100;-52
2023/09/18 03:08:06;;;;;;;30.65;24.02;;;17.90;99.90;;;;;;4995732;28;20081;-55
2023/09/18 03:10:37;;;;;;;28.75;22.10;;;17.90;99.90;;;;;;4988948;28;20334;-54
2023/09/18 03:13:03;;;;;;;33.47;24.85;;;17.90;99.90;;;;;;4995123;28;20204;-52
2023/09/18 03:15:30;;;;;;;27.50;23.70;;;17.90;99.90;;;;;;4992149;28;20049;-56
2023/09/18 03:17:57;;;;;;;30.80;23.17;;;17.90;99.90;;;;;;4983736;28;20046;-54
2023/09/18 03:20:26;;;;;;;28.65;23.70;;;17.90;99.90;;;;;;4991978;28;20067;-52
2023/09/18 03:22:56;;;;;;;28.75;23.73;;;17.90;99.90;;;;;;4992934;28;20049;-52
2023/09/18 03:25:23;;;;;;;27.17;23.50;;;17.90;99.90;;;;;;5000348;28;20053;-51
2023/09/18 03:27:51;;;;;;;29.08;23.38;;;17.90;99.90;;;;;;5011692;28;20049;-51
2023/09/18 03:30:18;;;;;;;29.60;23.17;;;17.90;99.90;;;;;;5014240;28;20076;-55
2023/09/18 03:32:45;;;;;;;27.42;22.35;;;17.90;99.90;;;;;;5018057;28;20045;-53
2023/09/18 03:35:17;;;;;;;28.85;21.83;;;17.90;99.90;;;;;;5014851;28;20037;-53
2023/09/18 03:37:47;;;;;;;25.33;21.75;;;17.90;99.90;;;;;;5015250;28;20096;-52
2023/09/18 03:40:15;;;;;;;28.45;21.38;;;17.90;99.90;;;;;;5013828;28;20599;-55
2023/09/18 03:42:40;;;;;;;27.55;21.95;;;17.90;99.90;;;;;;5012056;28;20549;-54
2023/09/18 03:45:07;;;;;;;28.63;21.98;;;17.90;99.90;;;;;;5011995;28;20037;-55
2023/09/18 03:47:39;;;;;;;25.63;21.02;;;17.90;99.90;;;;;;5016089;28;20085;-56
2023/09/18 03:50:06;;;;;;;26.45;21.35;;;17.80;99.90;;;;;;4997073;28;20042;-55
2023/09/18 03:52:32;;;;;;;30.20;22.33;;;17.90;99.90;;;;;;5012831;28;20305;-49
2023/09/18 03:54:57;;;;;;;22.98;20.13;;;17.80;99.90;;;;;;5011907;28;20045;-54
2023/09/18 03:57:24;;;;;;;27.23;21.20;;;17.80;99.90;;;;;;5012919;28;20161;-56
2023/09/18 03:59:50;;;;;;;25.33;20.27;;;17.90;99.90;;;;;;5013506;28;20038;-54
2023/09/18 04:02:15;;;;;;;24.73;19.98;;;17.90;99.90;;;;;;5011955;28;20052;-54
2023/09/18 04:04:41;;;;;;;25.10;19.85;;;17.90;99.90;;;;;;5010381;28;20045;-54
2023/09/18 04:07:08;;;;;;;25.90;19.60;;;17.90;99.90;;;;;;5012902;28;20046;-55
2023/09/18 04:09:34;;;;;;;26.02;19.67;;;17.90;99.90;;;;;;5013574;28;20046;-54
2023/09/18 04:12:01;;;;;;;22.05;19.63;;;17.90;99.90;;;;;;5013667;28;20484;-55
2023/09/18 04:14:27;;;;;;;26.50;19.30;;;17.90;99.90;;;;;;5010773;28;20033;-53
2023/09/18 04:16:52;;;;;;;26.67;19.33;;;17.90;99.90;;;;;;5010769;28;20073;-56
2023/09/18 04:19:18;;;;;;;25.33;19.10;;;17.90;99.90;;;;;;5012091;28;20045;-55
2023/09/18 04:21:44;;;;;;;25.02;18.15;;;17.90;99.90;;;;;;5011846;28;20041;-53
2023/09/18 04:24:09;;;;;;;23.90;18.38;;;17.90;99.90;;;;;;5012705;28;20041;-55
2023/09/18 04:26:35;;;;;;;24.40;17.85;;;18.00;99.90;;;;;;5012548;28;20137;-55
2023/09/18 04:29:01;;;;;;;24.27;17.85;;;17.90;99.90;;;;;;5012588;28;20488;-51
2023/09/18 04:31:27;;;;;;;21.05;16.75;;;18.00;99.90;;;;;;5011916;28;20092;-54
2023/09/18 04:33:54;;;;;;;23.70;18.15;;;18.00;99.90;;;;;;5012198;28;20045;-55
2023/09/18 04:36:20;;;;;;;20.40;17.58;;;18.00;99.90;;;;;;5010514;28;20038;-53
2023/09/18 04:38:45;;;;;;;20.33;16.88;;;18.00;99.90;;;;;;5010213;28;20048;-52
2023/09/18 04:41:11;;;;;;;21.77;17.90;;;18.00;99.90;;;;;;5012695;28;20052;-55
2023/09/18 04:43:40;;;;;;;20.77;17.50;;;18.00;99.90;;;;;;5010350;28;20033;-54
2023/09/18 04:46:05;;;;;;;21.55;17.85;;;18.00;99.90;;;;;;5011164;28;20037;-52
2023/09/18 04:48:32;;;;;;;21.05;15.98;;;18.00;99.90;;;;;;4995770;28;20038;-53
2023/09/18 04:50:59;;;;;;;20.77;16.15;;;18.00;99.90;;;;;;5012931;28;20049;-53
2023/09/18 04:53:25;;;;;;;23.23;16.30;;;18.00;99.90;;;;;;5011781;28;20073;-53
2023/09/18 04:55:51;;;;;;;21.08;16.30;;;18.00;99.90;;;;;;5013374;28;20492;-52
2023/09/18 04:58:17;;;;;;;24.42;15.52;;;18.00;99.90;;;;;;5011562;28;20038;-51
2023/09/18 05:00:43;;;;;;;21.83;15.27;;;18.00;99.90;;;;;;5011280;28;20500;-54
2023/09/18 05:03:10;;;;;;;19.45;14.85;;;18.10;99.90;;;;;;5011278;28;20054;-55
2023/09/18 05:05:36;;;;;;;19.15;15.25;;;18.10;99.90;;;;;;5007829;28;20029;-55
2023/09/18 05:08:10;;;;;;;20.13;14.60;;;18.10;99.90;;;;;;5008177;28;20045;-55
2023/09/18 05:10:36;;;;;;;20.65;15.45;;;18.10;99.90;;;;;;5006579;28;20516;-54
2023/09/18 05:13:03;;;;;;;23.05;15.05;;;18.20;99.90;;;;;;4990908;28;20049;-56
2023/09/18 05:15:29;;;;;;;20.02;14.60;;;18.20;99.90;;;;;;5003309;28;20037;-54
2023/09/18 05:17:57;;;;;;;20.90;13.98;;;18.20;99.90;;;;;;4998710;28;20489;-55
2023/09/18 05:20:25;;;;;;;20.65;14.68;;;18.20;99.90;;;;;;5010242;28;20041;-56
2023/09/18 05:22:55;;;;;;;19.20;14.48;;;18.20;99.90;;;;;;5007979;28;20053;-52
2023/09/18 05:25:27;;;;;;;19.55;14.38;;;18.30;99.90;;;;;;5006824;28;20394;-57
2023/09/18 05:27:57;;;;;;;21.42;14.20;;;18.30;99.90;;;;;;5021503;28;20053;-56
2023/09/18 05:30:28;;;;;;;19.48;14.18;;;18.30;99.90;;;;;;5010217;28;20042;-56
2023/09/18 05:33:04;;;;;;;21.48;14.18;;;18.30;99.90;;;;;;4996690;28;20038;-56
2023/09/18 05:35:33;;;;;;;20.10;14.30;;;18.30;99.90;;;;;;5003686;28;20385;-55
2023/09/18 05:37:59;;;;;;;21.83;13.85;;;18.30;99.90;;;;;;5002754;28;20042;-54
2023/09/18 05:40:29;;;;;;;23.88;14.35;;;18.30;99.90;;;;;;5008553;28;20041;-57
2023/09/18 05:42:56;;;;;;;18.80;13.90;;;18.40;99.90;;;;;;5004237;28;20041;-52
2023/09/18 05:45:22;;;;;;;17.98;14.13;;;18.40;99.90;;;;;;4994693;28;20038;-57
2023/09/18 05:47:49;;;;;;;19.40;13.60;;;18.40;99.90;;;;;;5005858;28;20041;-55
2023/09/18 05:50:16;;;;;;;17.45;13.00;;;18.50;99.90;;;;;;5006084;28;20069;-55
2023/09/18 05:52:43;;;;;;;18.15;12.73;;;18.50;99.90;;;;;;5011130;28;20056;-53
2023/09/18 05:55:09;;;;;;;19.95;13.85;;;18.50;99.90;;;;;;4996921;28;20503;-53
2023/09/18 05:57:35;;;;;;;15.85;12.10;;;18.50;99.90;;;;;;5009292;28;20107;-54
2023/09/18 06:00:01;;;;;;;17.38;12.50;;;18.50;99.90;;;;;;5007413;28;20073;-56
2023/09/18 06:02:27;;;;;;;17.88;12.60;;;18.50;99.90;;;;;;5009384;28;20034;-57
2023/09/18 06:04:57;;;;;;;16.13;11.90;;;18.50;99.90;;;;;;5009503;28;20042;-56
2023/09/18 06:07:24;;;;;;;17.67;12.52;;;18.60;99.90;;;;;;5003849;28;20049;-56
2023/09/18 06:09:50;;;;;;;17.08;11.68;;;18.60;99.90;;;;;;5006691;28;21685;-56
2023/09/18 06:12:16;;;;;;;19.13;11.13;;;18.60;99.90;;;;;;5010080;28;20033;-58
2023/09/18 06:14:42;;;;;;;12.68;9.98;;;18.60;99.90;;;;;;5010724;28;20612;-54
2023/09/18 06:17:09;;;;;;;13.73;9.90;;;18.60;99.90;;;;;;5009519;28;20076;-55
2023/09/18 06:19:35;;;;;;;13.65;10.00;;;18.70;99.90;;;;;;5011402;28;20076;-57
2023/09/18 06:22:01;;;;;;;16.23;10.43;;;18.70;99.90;;;;;;5013944;28;20083;-57
2023/09/18 06:24:27;;;;;;;18.25;10.07;;;18.70;99.90;;;;;;5005321;28;20071;-56
2023/09/18 06:26:53;;;;;;;12.18;9.88;;;18.70;99.90;;;;;;4984240;28;20057;-56
2023/09/18 06:29:19;;;;;;;12.25;10.27;;;18.80;99.90;;;;;;4995283;28;20131;-57
2023/09/18 06:31:50;;;;;;;22.63;10.30;;;18.80;99.90;;;;;;4994783;28;20038;-55
2023/09/18 06:34:16;;;;;;;14.70;9.73;;;18.80;99.90;;;;;;4995392;28;20060;-56
2023/09/18 06:36:42;;;;;;;13.52;9.52;;;18.80;99.90;;;;;;4997072;28;20217;-57
2023/09/18 06:39:08;;;;;;;18.52;9.90;;;18.80;99.90;;;;;;4998668;28;20042;-55
2023/09/18 06:41:33;;;;;;;11.43;9.43;;;18.90;99.90;;;;;;4995564;28;20580;-57
2023/09/18 06:44:02;;;;;;;16.30;9.52;;;18.80;99.90;;;;;;4995591;28;20081;-56
2023/09/18 06:46:29;;;;;;;12.40;9.77;;;18.80;99.90;;;;;;5010063;28;20397;-55
2023/09/18 06:48:56;;;;;;;12.82;9.65;;;18.80;99.90;;;;;;4983854;28;20084;-55
2023/09/18 06:51:23;;;;;;;13.82;9.82;;;18.90;99.90;;;;;;4973982;28;20146;-57
2023/09/18 06:53:49;;;;;;;13.95;9.85;;;18.80;99.90;;;;;;4993804;28;20692;-57
2023/09/18 06:56:14;;;;;;;11.52;9.65;;;18.90;99.90;;;;;;4995074;28;20038;-55
2023/09/18 06:58:40;;;;;;;14.15;9.43;;;18.90;99.90;;;;;;4994843;28;20439;-57
2023/09/18 07:01:06;;;;;;;17.25;9.68;;;18.90;99.90;;;;;;4995177;28;20038;-56
2023/09/18 07:03:34;;;;;;;16.85;9.60;;;18.90;99.90;;;;;;4998171;28;20050;-56
2023/09/18 07:06:00;;;;;;;15.32;9.82;;;18.90;99.90;;;;;;4995223;28;20045;-56
2023/09/18 07:08:26;;;;;;;15.68;9.23;;;18.90;99.90;;;;;;4981966;28;20042;-58
2023/09/18 07:10:52;;;;;;;20.92;10.73;;;18.90;99.90;;;;;;4994416;28;20517;-56
2023/09/18 07:13:18;;;;;;;16.63;11.30;;;18.90;99.90;;;;;;4994217;28;20125;-57
2023/09/18 07:15:44;;;;;;;19.75;12.18;;;18.90;99.90;;;;;;4997324;28;20050;-58
2023/09/18 07:18:14;;;;;;;20.50;12.90;;;18.90;99.90;;;;;;4997681;28;20100;-58
2023/09/18 07:20:40;;;;;;;20.75;12.90;;;19.00;99.90;;;;;;4995209;28;20486;-57
2023/09/18 07:23:06;;;;;;;19.20;12.93;;;18.90;99.90;;;;;;4993718;28;20054;-56
2023/09/18 07:25:31;;;;;;;18.42;12.70;;;18.90;99.90;;;;;;4994074;28;20061;-56
2023/09/18 07:27:57;;;;;;;21.73;13.00;;;18.90;99.90;;;;;;4995928;28;20084;-57
2023/09/18 07:30:26;;;;;;;22.23;15.20;;;18.90;99.90;;;;;;4996254;28;20034;-55
2023/09/18 07:32:57;;;;;;;17.85;13.52;;;18.90;99.90;;;;;;4985214;28;20187;-61
2023/09/18 07:35:24;;;;;;;17.60;13.10;;;18.90;99.90;;;;;;4976812;28;20102;-61
2023/09/18 07:37:50;;;;;;;21.20;13.10;;;18.90;99.90;;;;;;4993959;28;20060;-60
2023/09/18 07:40:16;;;;;;;24.70;13.23;;;18.90;99.90;;;;;;4995394;28;20457;-61
2023/09/18 07:42:45;;;;;;;24.35;13.30;;;18.90;99.90;;;;;;4985809;28;20048;-60
2023/09/18 07:45:11;;;;;;;22.05;13.95;;;18.90;99.90;;;;;;4993301;28;20037;-61
2023/09/18 07:47:37;;;;;;;22.15;13.57;;;18.80;99.90;;;;;;4994529;28;20386;-59
2023/09/18 07:50:03;;;;;;;17.02;13.38;;;18.80;99.90;;;;;;4968037;28;20034;-58
2023/09/18 07:52:30;;;;;;;20.73;13.02;;;18.80;99.90;;;;;;4993781;28;20177;-60
2023/09/18 07:54:57;;;;;;;22.27;14.32;;;18.80;99.90;;;;;;4993713;28;20156;-58
2023/09/18 07:57:23;;;;;;;20.30;14.23;;;18.80;99.90;;;;;;4977642;28;20077;-60
2023/09/18 07:59:50;;;;;;;19.40;14.05;;;18.80;99.90;;;;;;4988299;28;20153;-60
2023/09/18 08:02:17;;;;;;;21.85;15.10;;;18.80;99.90;;;;;;4993731;28;20931;-59
2023/09/18 08:04:43;;;;;;;22.52;13.93;;;18.80;99.90;;;;;;4993804;28;20501;-58
2023/09/18 08:07:08;;;;;;;18.95;13.85;;;18.80;99.90;;;;;;4996488;28;20149;-60
2023/09/18 08:09:38;;;;;;;18.13;14.52;;;18.80;99.90;;;;;;4996114;28;20077;-59
2023/09/18 08:12:05;;;;;;;18.60;13.65;;;18.80;99.90;;;;;;4993886;28;20494;-60
2023/09/18 08:14:31;;;;;;;17.90;13.68;;;18.80;99.90;;;;;;4993389;28;20045;-56
2023/09/18 08:16:58;;;;;;;20.65;13.45;;;18.80;99.90;;;;;;4992759;28;20052;-59
2023/09/18 08:19:28;;;;;;;17.08;13.52;;;18.80;99.90;;;;;;4994210;28;20041;-59
2023/09/18 08:21:54;;;;;;;21.13;14.27;;;18.80;99.90;;;;;;4995895;28;20042;-55
2023/09/18 08:24:21;;;;;;;21.52;14.13;;;18.80;99.90;;;;;;4993640;28;20048;-59
2023/09/18 08:26:47;;;;;;;20.58;13.32;;;18.80;99.90;;;;;;5002344;28;20061;-60
2023/09/18 08:29:13;;;;;;;25.88;14.00;;;18.90;99.90;;;;;;4997565;28;20029;-60
2023/09/18 08:31:38;;;;;;;19.83;13.90;;;18.80;99.90;;;;;;5013440;28;20037;-59
2023/09/18 08:34:04;;;;;;;20.10;13.30;;;18.80;99.90;;;;;;4996693;28;20042;-59
2023/09/18 08:36:30;;;;;;;21.95;13.43;;;18.80;99.90;;;;;;5013293;28;20041;-60
2023/09/18 08:38:56;;;;;;;23.30;13.32;;;18.80;99.90;;;;;;5013945;28;20409;-59
2023/09/18 08:41:26;;;;;;;18.92;13.63;;;18.90;99.90;;;;;;5012295;28;20076;-58
2023/09/18 08:43:57;;;;;;;17.08;12.02;;;18.80;99.90;;;;;;5012105;28;20050;-59
2023/09/18 08:46:23;;;;;;;16.98;12.20;;;18.90;99.90;;;;;;5015896;28;20057;-56
2023/09/18 08:48:51;;;;;;;15.40;11.55;;;18.90;99.90;;;;;;5013836;28;20503;-59
2023/09/18 08:51:18;;;;;;;16.55;11.13;;;18.90;99.90;;;;;;5012609;28;20049;-60
2023/09/18 08:53:45;;;;;;;15.30;10.23;;;18.90;99.90;;;;;;5011632;28;20041;-57
2023/09/18 08:56:13;;;;;;;19.45;11.75;;;18.90;99.90;;;;;;5008073;28;20041;-57
2023/09/18 08:58:42;;;;;;;16.05;10.70;;;19.00;99.90;;;;;;5013311;28;20042;-60
2023/09/18 09:01:11;;;;;;;15.00;10.60;;;19.00;99.90;;;;;;5006956;28;20041;-58
2023/09/18 09:03:38;;;;;;;17.92;11.05;;;19.10;99.90;;;;;;5014604;28;20052;-59
2023/09/18 09:06:09;;;;;;;13.15;10.27;;;19.10;99.90;;;;;;5012085;28;20545;-58
2023/09/18 09:08:35;;;;;;;18.55;11.20;;;19.10;99.90;;;;;;5013546;28;20073;-58
2023/09/18 09:11:01;;;;;;;16.48;10.75;;;19.10;99.90;;;;;;5015078;28;20560;-61
2023/09/18 09:13:27;;;;;;;15.30;10.00;;;19.10;99.90;;;;;;5010520;28;20038;-58
2023/09/18 09:15:55;;;;;;;13.88;10.27;;;19.10;99.90;;;;;;5014519;28;20034;-60
2023/09/18 09:18:22;;;;;;;16.30;10.52;;;19.20;99.90;;;;;;5026963;28;20076;-58
2023/09/18 09:20:57;;;;;;;13.75;10.23;;;19.20;99.90;;;;;;5013076;28;20049;-60
2023/09/18 09:23:24;;;;;;;18.08;11.60;;;19.20;99.90;;;;;;5012687;28;20045;-61
2023/09/18 09:25:49;;;;;;;17.45;11.75;;;19.20;99.90;;;;;;5012657;28;20108;-60
2023/09/18 09:28:16;;;;;;;15.52;10.77;;;19.20;99.90;;;;;;5006386;28;20053;-59
2023/09/18 09:30:42;;;;;;;17.35;10.77;;;19.20;99.90;;;;;;5013393;28;20170;-57
2023/09/18 09:33:12;;;;;;;19.42;11.30;;;19.30;99.90;;;;;;5011816;28;20046;-59
2023/09/18 09:35:39;;;;;;;17.95;11.70;;;19.30;99.90;;;;;;5013747;28;20072;-59
2023/09/18 09:38:11;;;;;;;15.18;10.93;;;19.40;99.90;;;;;;5015092;28;20045;-58
2023/09/18 09:40:40;;;;;;;15.45;10.48;;;19.40;99.90;;;;;;5012456;28;20038;-60
2023/09/18 09:43:08;;;;;;;16.15;10.88;;;19.50;99.90;;;;;;5013039;28;20478;-60
2023/09/18 09:45:35;;;;;;;18.80;10.88;;;19.50;99.90;;;;;;5025538;28;20385;-60
2023/09/18 09:48:04;;;;;;;16.92;10.82;;;19.50;99.90;;;;;;5011363;28;20160;-58
2023/09/18 09:50:32;;;;;;;13.32;10.90;;;19.60;99.90;;;;;;5014612;28;20033;-60
2023/09/18 09:52:58;;;;;;;16.38;11.80;;;19.60;99.90;;;;;;5011860;28;20414;-59
2023/09/18 09:55:29;;;;;;;16.25;11.80;;;19.60;99.90;;;;;;5010593;28;20037;-60
2023/09/18 09:58:03;;;;;;;18.10;12.30;;;19.60;99.90;;;;;;5012831;28;20049;-61
2023/09/18 10:00:51;;;;;;;16.38;13.10;;;19.70;99.90;;;;;;5013016;28;20064;-60
2023/09/18 10:03:19;;;;;;;19.38;12.63;;;19.70;99.90;;;;;;5011987;28;20037;-61
2023/09/18 10:05:51;;;;;;;20.50;12.68;;;19.70;99.90;;;;;;5013174;28;20045;-58
2023/09/18 10:08:22;;;;;;;16.55;12.25;;;19.80;99.90;;;;;;5013229;28;20054;-60
2023/09/18 10:10:51;;;;;;;15.18;12.82;;;19.80;99.90;;;;;;5011520;28;20049;-59
2023/09/18 10:13:21;;;;;;;17.73;13.00;;;19.90;99.90;;;;;;5009927;28;20038;-60
2023/09/18 10:15:49;;;;;;;20.55;13.80;;;19.90;99.90;;;;;;5013397;28;20483;-58
2023/09/18 10:18:52;;;;;;;18.10;13.60;;;20.00;99.90;;;;;;5010839;28;20038;-60
2023/09/18 10:22:05;;;;;;;19.85;13.88;;;20.10;99.90;;;;;;5010881;28;20076;-56
2023/09/18 10:24:39;;;;;;;18.42;14.40;;;20.20;99.90;;;;;;4956491;28;20169;-60
2023/09/18 10:27:06;;;;;;;15.85;13.57;;;20.30;99.90;;;;;;4956580;28;20054;-60
2023/09/18 10:29:36;;;;;;;16.63;14.15;;;20.40;99.90;;;;;;4987681;28;20171;-57
2023/09/18 10:32:07;;;;;;;17.10;13.80;;;20.50;99.90;;;;;;5010334;28;20038;-60
2023/09/18 10:34:34;;;;;;;17.70;14.40;;;20.60;99.90;;;;;;5008976;28;20048;-59
2023/09/18 10:37:05;;;;;;;18.38;13.98;;;20.70;99.90;;;;;;5011983;28;20053;-60
2023/09/18 10:39:34;;;;;;;19.25;14.02;;;20.80;99.90;;;;;;5010460;28;20037;-59
2023/09/18 10:42:02;;;;;;;16.73;13.75;;;20.80;99.90;;;;;;5012029;28;20085;-58
2023/09/18 10:44:29;;;;;;;18.25;13.55;;;20.80;99.90;;;;;;5013890;28;20046;-59
2023/09/18 10:46:55;;;;;;;20.52;14.48;;;20.90;99.90;;;;;;5009771;28;20344;-60
2023/09/18 10:49:21;;;;;;;19.75;12.73;;;21.00;99.90;;;;;;5011622;28;20572;-59
2023/09/18 10:51:48;;;;;;;12.05;9.88;;;21.10;99.90;;;;;;5010152;28;20095;-60
2023/09/18 10:54:21;;;;;;;15.60;11.05;;;21.10;99.90;;;;;;5009834;28;20073;-60
2023/09/18 10:56:47;;;;;;;13.45;10.80;;;21.10;99.90;;;;;;5013051;28;20049;-59
2023/09/18 10:59:15;;;;;;;12.25;9.68;;;21.10;99.90;;;;;;5013869;28;20922;-60
2023/09/18 11:01:42;;;;;;;10.70;8.88;;;21.20;99.90;;;;;;5015464;28;20521;-59
2023/09/18 11:04:09;;;;;;;13.30;8.73;;;21.30;99.90;;;;;;5014042;28;20045;-59
2023/09/18 11:06:53;;;;;;;10.95;9.05;;;21.60;99.90;;;;;;5013806;28;20374;-59
2023/09/18 11:09:24;;;;;;;8.35;7.40;;;21.90;99.90;;;;;;5014573;28;20079;-57
2023/09/18 11:11:58;;;;;;;8.80;6.95;;;22.10;99.90;;;;;;5013525;28;20128;-60
2023/09/18 11:14:46;;;;;;;11.85;7.63;;;22.30;99.90;;;;;;5016741;28;20088;-59
2023/09/18 11:17:36;;;;;;;9.27;7.35;;;22.30;99.90;;;;;;5015499;28;20049;-59
2023/09/18 11:20:09;;;;;;;10.65;7.28;;;22.40;99.90;;;;;;5015478;28;20404;-60
2023/09/18 11:23:09;;;;;;;8.85;6.40;;;22.50;99.90;;;;;;5013759;28;20076;-59
2023/09/18 11:25:40;;;;;;;6.63;6.00;;;22.30;99.90;;;;;;5011636;28;20041;-60
2023/09/18 11:28:07;;;;;;;8.48;5.70;;;22.20;99.90;;;;;;5014983;28;20132;-59
2023/09/18 11:30:36;;;;;;;6.57;5.65;;;22.30;99.90;;;;;;5015030;28;20045;-60
2023/09/18 11:33:06;;;;;;;6.82;5.88;;;22.40;99.90;;;;;;5019892;28;20049;-58
2023/09/18 11:35:35;;;;;;;8.35;5.70;;;22.60;99.90;;;;;;5017469;28;20505;-59
2023/09/18 11:38:11;;;;;;;10.93;5.50;;;22.80;99.90;;;;;;5014771;28;20497;-60
2023/09/18 11:40:40;;;;;;;7.15;5.25;;;23.10;99.90;;;;;;5013934;28;20396;-57
2023/09/18 11:43:29;;;;;;;7.50;4.97;;;23.30;99.90;;;;;;5015353;28;20053;-59
2023/09/18 11:46:03;;;;;;;7.88;5.60;;;23.40;99.90;;;;;;5015987;28;20037;-60
2023/09/18 11:48:33;;;;;;;6.60;5.22;;;23.40;99.90;;;;;;5014060;28;20069;-60
2023/09/18 11:51:03;;;;;;;6.53;4.93;;;23.30;99.90;;;;;;5014713;28;20038;-59
2023/09/18 11:53:29;;;;;;;12.60;5.45;;;23.40;99.90;;;;;;5016792;28;20050;-59
2023/09/18 11:55:55;;;;;;;7.47;4.50;;;23.50;99.90;;;;;;5013601;28;20042;-60
2023/09/18 11:58:23;;;;;;;7.80;4.57;;;23.80;99.90;;;;;;5013968;28;20037;-60
2023/09/18 12:00:54;;;;;;;6.93;4.10;;;23.90;99.90;;;;;;5029581;28;20437;-58
2023/09/18 12:03:26;;;;;;;5.80;4.50;;;23.90;99.90;;;;;;5011737;28;20406;-59
2023/09/18 12:06:07;;;;;;;5.32;4.63;;;23.80;99.90;;;;;;5016176;28;20477;-58
2023/09/18 12:08:33;;;;;;;5.13;4.03;;;23.70;99.90;;;;;;5014440;28;20080;-58
2023/09/18 12:10:59;;;;;;;7.30;4.50;;;23.40;99.90;;;;;;5013625;28;20076;-58
2023/09/18 12:13:26;;;;;;;5.60;4.35;;;23.20;99.90;;;;;;5016216;28;20057;-59
2023/09/18 12:16:04;;;;;;;7.75;4.53;;;23.00;99.90;;;;;;5017653;28;20672;-56
2023/09/18 12:18:38;;;;;;;5.50;4.43;;;22.90;99.90;;;;;;5011920;28;20037;-60
2023/09/18 12:21:06;;;;;;;5.07;4.03;;;23.00;99.90;;;;;;5015014;28;20100;-58
2023/09/18 12:23:40;;;;;;;5.88;4.40;;;23.10;99.90;;;;;;5028673;28;20042;-58
2023/09/18 12:26:07;;;;;;;7.05;4.28;;;23.20;99.90;;;;;;5009900;28;20257;-56
2023/09/18 12:28:36;;;;;;;6.40;4.25;;;23.50;99.90;;;;;;5013252;28;20061;-59
2023/09/18 12:31:06;;;;;;;7.55;4.07;;;23.50;99.90;;;;;;5012490;28;20053;-60
2023/09/18 12:33:36;;;;;;;8.93;4.20;;;23.40;99.90;;;;;;5012542;28;21157;-60
2023/09/18 12:36:04;;;;;;;11.00;4.72;;;23.20;99.90;;;;;;5013814;28;20049;-59